sensor_id;sensor_type;location;lat;lon;timestamp;pressure;altitude;pressure_sealevel;temperature;humidity
20043;BME280;10182;52.896;6.496;2023-03-18T00:02:37;100541.31;;;11.27;100.00
20043;BME280;10182;52.896;6.496;2023-03-18T00:07:40;100547.81;;;11.22;100.00
20043;BME280;10182;52.896;6.496;2023-03-18T00:12:43;100548.72;;;11.21;100.00
20043;BME280;10182;52.896;6.496;2023-03-18T00:17:46;100555.00;;;11.20;100.00
20043;BME280;10182;52.896;6.496;2023-03-18T00:22:48;100556.69;;;11.21;100.00
20043;BME280;10182;52.896;6.496;2023-03-18T00:27:52;100561.06;;;11.22;100.00
20043;BME280;10182;52.896;6.496;2023-03-18T00:32:55;100555.84;;;11.20;100.00
20043;BME280;10182;52.896;6.496;2023-03-18T00:37:57;100555.28;;;11.13;100.00
20043;BME280;10182;52.896;6.496;2023-03-18T00:43:01;100554.66;;;11.08;100.00
20043;BME280;10182;52.896;6.496;2023-03-18T00:48:07;100551.66;;;10.98;100.00
20043;BME280;10182;52.896;6.496;2023-03-18T00:53:10;100557.66;;;10.84;100.00
20043;BME280;10182;52.896;6.496;2023-03-18T00:58:13;100565.22;;;10.75;100.00
20043;BME280;10182;52.896;6.496;2023-03-18T01:03:15;100567.69;;;10.60;100.00
20043;BME280;10182;52.896;6.496;2023-03-18T01:08:18;100568.22;;;10.49;100.00
20043;BME280;10182;52.896;6.496;2023-03-18T01:13:22;100573.09;;;10.40;100.00
20043;BME280;10182;52.896;6.496;2023-03-18T01:18:25;100565.63;;;10.29;100.00
20043;BME280;10182;52.896;6.496;2023-03-18T01:23:27;100570.38;;;10.22;100.00
20043;BME280;10182;52.896;6.496;2023-03-18T01:28:31;100580.38;;;10.15;100.00
20043;BME280;10182;52.896;6.496;2023-03-18T01:33:32;100590.97;;;10.15;100.00
20043;BME280;10182;52.896;6.496;2023-03-18T01:38:35;100598.41;;;10.07;100.00
20043;BME280;10182;52.896;6.496;2023-03-18T01:43:40;100599.50;;;10.03;100.00
20043;BME280;10182;52.896;6.496;2023-03-18T01:48:42;100609.31;;;10.01;100.00
20043;BME280;10182;52.896;6.496;2023-03-18T01:53:47;100606.16;;;9.93;100.00
20043;BME280;10182;52.896;6.496;2023-03-18T01:58:53;100606.34;;;9.88;100.00
20043;BME280;10182;52.896;6.496;2023-03-18T02:03:56;100606.66;;;9.82;100.00
20043;BME280;10182;52.896;6.496;2023-03-18T02:08:59;100616.72;;;9.74;100.00
20043;BME280;10182;52.896;6.496;2023-03-18T02:14:02;100609.13;;;9.66;100.00
20043;BME280;10182;52.896;6.496;2023-03-18T02:19:25;100622.56;;;9.61;100.00
20043;BME280;10182;52.896;6.496;2023-03-18T02:24:35;100614.94;;;9.54;100.00
20043;BME280;10182;52.896;6.496;2023-03-18T02:29:41;100605.59;;;9.46;100.00
20043;BME280;10182;52.896;6.496;2023-03-18T02:34:44;100613.91;;;9.37;100.00
20043;BME280;10182;52.896;6.496;2023-03-18T02:39:46;100621.31;;;9.29;100.00
20043;BME280;10182;52.896;6.496;2023-03-18T02:44:49;100618.06;;;9.22;100.00
20043;BME280;10182;52.896;6.496;2023-03-18T02:49:52;100628.72;;;9.21;100.00
20043;BME280;10182;52.896;6.496;2023-03-18T02:54:54;100618.22;;;9.19;100.00
20043;BME280;10182;52.896;6.496;2023-03-18T02:59:59;100638.50;;;9.19;100.00
20043;BME280;10182;52.896;6.496;2023-03-18T03:05:01;100637.63;;;9.18;100.00
20043;BME280;10182;52.896;6.496;2023-03-18T03:10:04;100640.22;;;9.20;100.00
20043;BME280;10182;52.896;6.496;2023-03-18T03:15:09;100652.50;;;9.21;100.00
20043;BME280;10182;52.896;6.496;2023-03-18T03:20:11;100650.72;;;9.21;100.00
20043;BME280;10182;52.896;6.496;2023-03-18T03:25:14;100648.59;;;9.09;100.00
20043;BME280;10182;52.896;6.496;2023-03-18T03:30:20;100666.38;;;9.05;100.00
20043;BME280;10182;52.896;6.496;2023-03-18T03:35:22;100668.34;;;9.00;100.00
20043;BME280;10182;52.896;6.496;2023-03-18T03:40:24;100679.16;;;8.94;100.00
20043;BME280;10182;52.896;6.496;2023-03-18T03:45:28;100688.00;;;8.93;100.00
20043;BME280;10182;52.896;6.496;2023-03-18T03:50:30;100689.84;;;8.91;100.00
20043;BME280;10182;52.896;6.496;2023-03-18T03:55:31;100690.72;;;8.91;100.00
20043;BME280;10182;52.896;6.496;2023-03-18T04:00:36;100696.00;;;8.91;100.00
20043;BME280;10182;52.896;6.496;2023-03-18T04:05:38;100704.72;;;8.93;100.00
20043;BME280;10182;52.896;6.496;2023-03-18T04:10:40;100695.25;;;8.88;100.00
20043;BME280;10182;52.896;6.496;2023-03-18T04:15:44;100709.25;;;8.90;100.00
20043;BME280;10182;52.896;6.496;2023-03-18T04:20:46;100706.59;;;8.90;100.00
20043;BME280;10182;52.896;6.496;2023-03-18T04:25:48;100708.53;;;8.86;100.00
20043;BME280;10182;52.896;6.496;2023-03-18T04:30:52;100714.66;;;8.87;100.00
20043;BME280;10182;52.896;6.496;2023-03-18T04:35:53;100719.09;;;8.86;100.00
20043;BME280;10182;52.896;6.496;2023-03-18T04:40:55;100726.22;;;8.84;100.00
20043;BME280;10182;52.896;6.496;2023-03-18T04:45:58;100731.56;;;8.83;100.00
20043;BME280;10182;52.896;6.496;2023-03-18T04:51:01;100734.25;;;8.81;100.00
20043;BME280;10182;52.896;6.496;2023-03-18T04:56:03;100738.63;;;8.82;100.00
20043;BME280;10182;52.896;6.496;2023-03-18T05:01:06;100736.91;;;8.81;100.00
20043;BME280;10182;52.896;6.496;2023-03-18T05:06:19;100742.13;;;8.83;100.00
20043;BME280;10182;52.896;6.496;2023-03-18T05:11:21;100746.50;;;8.84;100.00
20043;BME280;10182;52.896;6.496;2023-03-18T05:16:24;100744.94;;;8.78;100.00
20043;BME280;10182;52.896;6.496;2023-03-18T05:21:25;100735.31;;;8.77;100.00
20043;BME280;10182;52.896;6.496;2023-03-18T05:26:27;100747.94;;;8.69;100.00
20043;BME280;10182;52.896;6.496;2023-03-18T05:31:30;100743.56;;;8.68;100.00
20043;BME280;10182;52.896;6.496;2023-03-18T05:36:32;100748.84;;;8.68;100.00
20043;BME280;10182;52.896;6.496;2023-03-18T05:41:33;100755.03;;;8.68;100.00
20043;BME280;10182;52.896;6.496;2023-03-18T05:46:36;100766.25;;;8.73;100.00
20043;BME280;10182;52.896;6.496;2023-03-18T05:51:38;100756.94;;;8.87;100.00
20043;BME280;10182;52.896;6.496;2023-03-18T05:56:40;100762.97;;;8.90;100.00
20043;BME280;10182;52.896;6.496;2023-03-18T06:01:44;100767.88;;;9.00;100.00
20043;BME280;10182;52.896;6.496;2023-03-18T06:06:46;100766.16;;;8.98;100.00
20043;BME280;10182;52.896;6.496;2023-03-18T06:11:47;100771.44;;;8.98;100.00
20043;BME280;10182;52.896;6.496;2023-03-18T06:16:51;100770.47;;;9.01;100.00
20043;BME280;10182;52.896;6.496;2023-03-18T06:21:53;100777.47;;;9.02;100.00
20043;BME280;10182;52.896;6.496;2023-03-18T06:26:55;100779.25;;;9.02;100.00
20043;BME280;10182;52.896;6.496;2023-03-18T06:31:58;100786.53;;;8.95;100.00
20043;BME280;10182;52.896;6.496;2023-03-18T06:36:59;100800.84;;;8.89;100.00
20043;BME280;10182;52.896;6.496;2023-03-18T06:42:01;100806.06;;;8.91;100.00
20043;BME280;10182;52.896;6.496;2023-03-18T06:47:04;100812.81;;;9.00;100.00
20043;BME280;10182;52.896;6.496;2023-03-18T06:52:06;100814.41;;;9.04;100.00
20043;BME280;10182;52.896;6.496;2023-03-18T06:57:08;100829.94;;;9.11;100.00
20043;BME280;10182;52.896;6.496;2023-03-18T07:02:11;100829.16;;;9.31;100.00
20043;BME280;10182;52.896;6.496;2023-03-18T07:07:13;100833.88;;;9.45;100.00
20043;BME280;10182;52.896;6.496;2023-03-18T07:12:14;100833.66;;;9.52;100.00
20043;BME280;10182;52.896;6.496;2023-03-18T07:17:18;100834.69;;;9.47;100.00
20043;BME280;10182;52.896;6.496;2023-03-18T07:22:20;100843.34;;;9.51;100.00
20043;BME280;10182;52.896;6.496;2023-03-18T07:27:22;100845.22;;;9.49;100.00
20043;BME280;10182;52.896;6.496;2023-03-18T07:32:25;100858.50;;;9.47;100.00
20043;BME280;10182;52.896;6.496;2023-03-18T07:37:29;100861.00;;;9.51;100.00
20043;BME280;10182;52.896;6.496;2023-03-18T07:42:31;100862.00;;;9.48;100.00
20043;BME280;10182;52.896;6.496;2023-03-18T07:47:34;100876.81;;;9.52;100.00
20043;BME280;10182;52.896;6.496;2023-03-18T07:52:36;100887.31;;;9.54;100.00
20043;BME280;10182;52.896;6.496;2023-03-18T07:57:38;100889.19;;;9.52;100.00
20043;BME280;10182;52.896;6.496;2023-03-18T08:02:41;100903.44;;;9.47;100.00
20043;BME280;10182;52.896;6.496;2023-03-18T08:07:43;100894.00;;;9.40;100.00
20043;BME280;10182;52.896;6.496;2023-03-18T08:12:45;100889.41;;;9.45;100.00
20043;BME280;10182;52.896;6.496;2023-03-18T08:17:52;100904.44;;;9.45;100.00
20043;BME280;10182;52.896;6.496;2023-03-18T08:22:54;100890.88;;;9.53;100.00
20043;BME280;10182;52.896;6.496;2023-03-18T08:27:56;100896.34;;;9.70;100.00
20043;BME280;10182;52.896;6.496;2023-03-18T08:32:59;100909.22;;;9.79;100.00
20043;BME280;10182;52.896;6.496;2023-03-18T08:38:01;100916.16;;;9.82;100.00
20043;BME280;10182;52.896;6.496;2023-03-18T08:43:03;100906.13;;;9.90;100.00
20043;BME280;10182;52.896;6.496;2023-03-18T08:48:06;100914.25;;;10.08;100.00
20043;BME280;10182;52.896;6.496;2023-03-18T08:53:08;100924.03;;;10.26;100.00
20043;BME280;10182;52.896;6.496;2023-03-18T08:58:10;100916.34;;;10.42;100.00
20043;BME280;10182;52.896;6.496;2023-03-18T09:03:14;100910.78;;;10.48;100.00
20043;BME280;10182;52.896;6.496;2023-03-18T09:08:15;100898.75;;;10.81;100.00
20043;BME280;10182;52.896;6.496;2023-03-18T09:13:17;100904.22;;;11.16;100.00
20043;BME280;10182;52.896;6.496;2023-03-18T09:18:21;100898.50;;;11.25;100.00
20043;BME280;10182;52.896;6.496;2023-03-18T09:23:24;100890.44;;;11.46;100.00
20043;BME280;10182;52.896;6.496;2023-03-18T09:28:27;100898.53;;;11.62;100.00
20043;BME280;10182;52.896;6.496;2023-03-18T09:33:30;100901.44;;;11.75;100.00
20043;BME280;10182;52.896;6.496;2023-03-18T09:38:32;100918.91;;;11.98;100.00
20043;BME280;10182;52.896;6.496;2023-03-18T09:43:50;100923.44;;;12.13;100.00
20043;BME280;10182;52.896;6.496;2023-03-18T09:49:22;100932.75;;;11.85;100.00
20043;BME280;10182;52.896;6.496;2023-03-18T09:54:32;100939.00;;;11.84;100.00
20043;BME280;10182;52.896;6.496;2023-03-18T09:59:38;100941.59;;;11.67;100.00
20043;BME280;10182;52.896;6.496;2023-03-18T10:04:44;100957.31;;;11.72;100.00
20043;BME280;10182;52.896;6.496;2023-03-18T10:09:52;100959.91;;;11.73;100.00
20043;BME280;10182;52.896;6.496;2023-03-18T10:15:03;100953.72;;;11.73;100.00
20043;BME280;10182;52.896;6.496;2023-03-18T10:20:16;100952.28;;;11.84;100.00
20043;BME280;10182;52.896;6.496;2023-03-18T10:25:24;100952.81;;;12.10;100.00
20043;BME280;10182;52.896;6.496;2023-03-18T10:30:46;100950.28;;;12.26;100.00
20043;BME280;10182;52.896;6.496;2023-03-18T10:36:00;100946.19;;;12.36;100.00
20043;BME280;10182;52.896;6.496;2023-03-18T10:41:14;100954.63;;;12.45;100.00
20043;BME280;10182;52.896;6.496;2023-03-18T10:46:19;100952.13;;;12.59;100.00
20043;BME280;10182;52.896;6.496;2023-03-18T10:51:27;100954.22;;;12.88;100.00
20043;BME280;10182;52.896;6.496;2023-03-18T10:56:30;100951.63;;;13.19;100.00
20043;BME280;10182;52.896;6.496;2023-03-18T11:01:33;100951.75;;;13.66;100.00
20043;BME280;10182;52.896;6.496;2023-03-18T11:06:41;100952.50;;;14.00;100.00
20043;BME280;10182;52.896;6.496;2023-03-18T11:11:45;100950.81;;;14.13;100.00
20043;BME280;10182;52.896;6.496;2023-03-18T11:16:50;100947.69;;;14.51;100.00
20043;BME280;10182;52.896;6.496;2023-03-18T11:22:04;100937.16;;;14.19;100.00
20043;BME280;10182;52.896;6.496;2023-03-18T11:27:24;100941.25;;;14.25;100.00
20043;BME280;10182;52.896;6.496;2023-03-18T11:32:28;100923.84;;;13.89;100.00
20043;BME280;10182;52.896;6.496;2023-03-18T11:37:33;100938.19;;;13.70;100.00
20043;BME280;10182;52.896;6.496;2023-03-18T11:42:37;100935.38;;;13.58;100.00
20043;BME280;10182;52.896;6.496;2023-03-18T11:47:39;100928.34;;;14.03;100.00
20043;BME280;10182;52.896;6.496;2023-03-18T11:52:45;100927.41;;;14.49;100.00
20043;BME280;10182;52.896;6.496;2023-03-18T11:58:16;100927.84;;;14.57;100.00
20043;BME280;10182;52.896;6.496;2023-03-18T12:03:50;100917.22;;;14.71;100.00
20043;BME280;10182;52.896;6.496;2023-03-18T12:09:02;100913.31;;;14.92;100.00
20043;BME280;10182;52.896;6.496;2023-03-18T12:14:12;100917.97;;;14.88;100.00
20043;BME280;10182;52.896;6.496;2023-03-18T12:19:44;100911.41;;;14.94;100.00
20043;BME280;10182;52.896;6.496;2023-03-18T12:25:03;100916.38;;;14.71;100.00
20043;BME280;10182;52.896;6.496;2023-03-18T12:30:22;100906.94;;;14.94;100.00
20043;BME280;10182;52.896;6.496;2023-03-18T12:35:40;100917.31;;;14.99;100.00
20043;BME280;10182;52.896;6.496;2023-03-18T12:40:55;100912.25;;;15.23;100.00
20043;BME280;10182;52.896;6.496;2023-03-18T12:46:04;100917.28;;;15.28;100.00
20043;BME280;10182;52.896;6.496;2023-03-18T12:51:14;100912.63;;;15.17;100.00
20043;BME280;10182;52.896;6.496;2023-03-18T12:56:22;100914.66;;;14.84;100.00
20043;BME280;10182;52.896;6.496;2023-03-18T13:01:30;100915.38;;;14.58;100.00
20043;BME280;10182;52.896;6.496;2023-03-18T13:06:37;100914.78;;;14.52;100.00
20043;BME280;10182;52.896;6.496;2023-03-18T13:11:50;100907.50;;;14.70;100.00
20043;BME280;10182;52.896;6.496;2023-03-18T13:16:56;100910.19;;;14.85;100.00
20043;BME280;10182;52.896;6.496;2023-03-18T13:22:06;100903.31;;;14.95;100.00
20043;BME280;10182;52.896;6.496;2023-03-18T13:27:32;100899.28;;;15.17;100.00
20043;BME280;10182;52.896;6.496;2023-03-18T13:32:53;100903.75;;;15.31;100.00
20043;BME280;10182;52.896;6.496;2023-03-18T13:38:10;100905.19;;;15.36;100.00
20043;BME280;10182;52.896;6.496;2023-03-18T13:43:20;100904.03;;;15.40;100.00
20043;BME280;10182;52.896;6.496;2023-03-18T13:48:26;100898.34;;;15.60;100.00
20043;BME280;10182;52.896;6.496;2023-03-18T13:53:31;100901.44;;;15.81;100.00
20043;BME280;10182;52.896;6.496;2023-03-18T13:58:43;100900.59;;;15.80;100.00
20043;BME280;10182;52.896;6.496;2023-03-18T14:04:27;100898.47;;;15.85;100.00
20043;BME280;10182;52.896;6.496;2023-03-18T14:09:34;100888.88;;;15.68;100.00
20043;BME280;10182;52.896;6.496;2023-03-18T14:14:56;100888.28;;;15.50;100.00
20043;BME280;10182;52.896;6.496;2023-03-18T14:20:17;100891.06;;;15.34;100.00
20043;BME280;10182;52.896;6.496;2023-03-18T14:30:44;100879.78;;;15.02;100.00
20043;BME280;10182;52.896;6.496;2023-03-18T14:35:49;100879.59;;;15.05;100.00
20043;BME280;10182;52.896;6.496;2023-03-18T14:40:55;100875.22;;;15.04;100.00
20043;BME280;10182;52.896;6.496;2023-03-18T14:46:02;100869.50;;;14.96;100.00
20043;BME280;10182;52.896;6.496;2023-03-18T14:51:08;100873.97;;;14.95;100.00
20043;BME280;10182;52.896;6.496;2023-03-18T14:56:16;100876.84;;;14.78;100.00
20043;BME280;10182;52.896;6.496;2023-03-18T15:01:21;100879.56;;;14.62;100.00
20043;BME280;10182;52.896;6.496;2023-03-18T15:06:25;100887.53;;;14.33;100.00
20043;BME280;10182;52.896;6.496;2023-03-18T15:11:27;100887.81;;;13.98;100.00
20043;BME280;10182;52.896;6.496;2023-03-18T15:16:36;100890.47;;;13.67;100.00
20043;BME280;10182;52.896;6.496;2023-03-18T15:21:38;100881.41;;;13.40;100.00
20043;BME280;10182;52.896;6.496;2023-03-18T15:26:41;100884.34;;;13.17;100.00
20043;BME280;10182;52.896;6.496;2023-03-18T15:31:44;100886.75;;;13.06;100.00
20043;BME280;10182;52.896;6.496;2023-03-18T15:36:51;100882.25;;;12.91;100.00
20043;BME280;10182;52.896;6.496;2023-03-18T15:41:54;100891.00;;;12.77;100.00
20043;BME280;10182;52.896;6.496;2023-03-18T15:47:09;100891.25;;;12.55;100.00
20043;BME280;10182;52.896;6.496;2023-03-18T15:52:13;100919.53;;;12.38;100.00
20043;BME280;10182;52.896;6.496;2023-03-18T15:57:24;100923.84;;;12.23;100.00
20043;BME280;10182;52.896;6.496;2023-03-18T16:02:29;100948.34;;;12.11;100.00
20043;BME280;10182;52.896;6.496;2023-03-18T16:07:31;100946.31;;;11.79;100.00
20043;BME280;10182;52.896;6.496;2023-03-18T16:12:34;100922.22;;;11.47;100.00
20043;BME280;10182;52.896;6.496;2023-03-18T16:17:38;100920.47;;;11.46;100.00
20043;BME280;10182;52.896;6.496;2023-03-18T16:22:39;100927.56;;;11.65;100.00
20043;BME280;10182;52.896;6.496;2023-03-18T16:27:42;100925.00;;;12.00;100.00
20043;BME280;10182;52.896;6.496;2023-03-18T16:32:46;100937.13;;;12.41;100.00
20043;BME280;10182;52.896;6.496;2023-03-18T16:37:48;100940.22;;;12.84;100.00
20043;BME280;10182;52.896;6.496;2023-03-18T16:42:51;100925.44;;;13.12;100.00
20043;BME280;10182;52.896;6.496;2023-03-18T16:47:57;100920.69;;;13.01;100.00
20043;BME280;10182;52.896;6.496;2023-03-18T16:52:59;100924.88;;;12.89;100.00
20043;BME280;10182;52.896;6.496;2023-03-18T16:58:01;100928.50;;;12.70;100.00
20043;BME280;10182;52.896;6.496;2023-03-18T17:03:04;100932.59;;;12.60;100.00
20043;BME280;10182;52.896;6.496;2023-03-18T17:08:06;100937.28;;;12.38;100.00
20043;BME280;10182;52.896;6.496;2023-03-18T17:13:15;100941.75;;;12.19;100.00
20043;BME280;10182;52.896;6.496;2023-03-18T17:18:21;100943.88;;;11.94;100.00
20043;BME280;10182;52.896;6.496;2023-03-18T17:23:24;100952.78;;;11.74;100.00
20043;BME280;10182;52.896;6.496;2023-03-18T17:28:30;100945.25;;;11.64;100.00
20043;BME280;10182;52.896;6.496;2023-03-18T17:33:35;100939.84;;;11.48;100.00
20043;BME280;10182;52.896;6.496;2023-03-18T17:38:37;100940.69;;;11.30;100.00
20043;BME280;10182;52.896;6.496;2023-03-18T17:43:39;100951.94;;;11.16;100.00
20043;BME280;10182;52.896;6.496;2023-03-18T17:48:42;100950.94;;;11.18;100.00
20043;BME280;10182;52.896;6.496;2023-03-18T17:53:46;100945.66;;;11.18;100.00
20043;BME280;10182;52.896;6.496;2023-03-18T17:58:49;100943.84;;;11.19;100.00
20043;BME280;10182;52.896;6.496;2023-03-18T18:03:53;100948.63;;;11.11;100.00
20043;BME280;10182;52.896;6.496;2023-03-18T18:08:57;100952.28;;;11.08;100.00
20043;BME280;10182;52.896;6.496;2023-03-18T18:14:00;100947.34;;;11.00;100.00
20043;BME280;10182;52.896;6.496;2023-03-18T18:19:04;100956.22;;;10.99;100.00
20043;BME280;10182;52.896;6.496;2023-03-18T18:24:12;100944.31;;;10.89;100.00
20043;BME280;10182;52.896;6.496;2023-03-18T18:29:18;100947.38;;;10.80;100.00
20043;BME280;10182;52.896;6.496;2023-03-18T18:34:21;100944.25;;;10.70;100.00
20043;BME280;10182;52.896;6.496;2023-03-18T18:39:23;100949.03;;;10.62;100.00
20043;BME280;10182;52.896;6.496;2023-03-18T18:44:25;100950.31;;;10.53;100.00
20043;BME280;10182;52.896;6.496;2023-03-18T18:49:29;100940.84;;;10.47;100.00
20043;BME280;10182;52.896;6.496;2023-03-18T18:54:31;100947.34;;;10.40;100.00
20043;BME280;10182;52.896;6.496;2023-03-18T18:59:33;100951.31;;;10.28;100.00
20043;BME280;10182;52.896;6.496;2023-03-18T19:04:36;100941.94;;;10.21;100.00
20043;BME280;10182;52.896;6.496;2023-03-18T19:09:39;100951.38;;;10.06;100.00
20043;BME280;10182;52.896;6.496;2023-03-18T19:14:41;100951.66;;;9.98;100.00
20043;BME280;10182;52.896;6.496;2023-03-18T19:19:45;100957.03;;;9.97;100.00
20043;BME280;10182;52.896;6.496;2023-03-18T19:24:47;100946.88;;;9.86;100.00
20043;BME280;10182;52.896;6.496;2023-03-18T19:29:50;100954.13;;;9.81;100.00
20043;BME280;10182;52.896;6.496;2023-03-18T19:34:54;100956.28;;;9.71;100.00
20043;BME280;10182;52.896;6.496;2023-03-18T19:39:56;100958.63;;;9.79;100.00
20043;BME280;10182;52.896;6.496;2023-03-18T19:44:59;100960.47;;;9.77;100.00
20043;BME280;10182;52.896;6.496;2023-03-18T19:50:12;100947.16;;;9.78;100.00
20043;BME280;10182;52.896;6.496;2023-03-18T19:55:15;100954.88;;;9.62;100.00
20043;BME280;10182;52.896;6.496;2023-03-18T20:00:19;100959.91;;;9.69;100.00
20043;BME280;10182;52.896;6.496;2023-03-18T20:05:24;100953.22;;;9.60;100.00
20043;BME280;10182;52.896;6.496;2023-03-18T20:10:26;100955.16;;;9.55;100.00
20043;BME280;10182;52.896;6.496;2023-03-18T20:15:29;100967.94;;;9.43;100.00
20043;BME280;10182;52.896;6.496;2023-03-18T20:20:32;100970.25;;;9.29;100.00
20043;BME280;10182;52.896;6.496;2023-03-18T20:25:36;100972.94;;;9.27;100.00
20043;BME280;10182;52.896;6.496;2023-03-18T20:30:40;100970.63;;;9.18;100.00
20043;BME280;10182;52.896;6.496;2023-03-18T20:35:44;100984.88;;;9.14;100.00
20043;BME280;10182;52.896;6.496;2023-03-18T20:40:47;100979.06;;;9.04;100.00
20043;BME280;10182;52.896;6.496;2023-03-18T20:45:49;100977.41;;;9.02;100.00
20043;BME280;10182;52.896;6.496;2023-03-18T20:50:53;100982.69;;;9.02;100.00
20043;BME280;10182;52.896;6.496;2023-03-18T20:55:55;100984.47;;;9.01;100.00
20043;BME280;10182;52.896;6.496;2023-03-18T21:00:57;100979.78;;;9.09;100.00
20043;BME280;10182;52.896;6.496;2023-03-18T21:06:01;100978.69;;;9.15;100.00
20043;BME280;10182;52.896;6.496;2023-03-18T21:11:04;100977.59;;;9.21;100.00
20043;BME280;10182;52.896;6.496;2023-03-18T21:16:10;100977.94;;;9.35;100.00
20043;BME280;10182;52.896;6.496;2023-03-18T21:21:19;100968.97;;;9.39;100.00
20043;BME280;10182;52.896;6.496;2023-03-18T21:26:22;100967.94;;;9.43;100.00
20043;BME280;10182;52.896;6.496;2023-03-18T21:31:25;100965.75;;;9.55;100.00
20043;BME280;10182;52.896;6.496;2023-03-18T21:36:31;100956.75;;;9.59;100.00
20043;BME280;10182;52.896;6.496;2023-03-18T21:41:33;100958.16;;;9.69;100.00
20043;BME280;10182;52.896;6.496;2023-03-18T21:46:35;100952.41;;;9.80;100.00
20043;BME280;10182;52.896;6.496;2023-03-18T21:51:38;100956.84;;;9.79;100.00
20043;BME280;10182;52.896;6.496;2023-03-18T21:56:41;100947.72;;;9.87;100.00
20043;BME280;10182;52.896;6.496;2023-03-18T22:01:42;100959.41;;;9.81;100.00
20043;BME280;10182;52.896;6.496;2023-03-18T22:06:45;100965.47;;;9.85;100.00
20043;BME280;10182;52.896;6.496;2023-03-18T22:11:47;100969.09;;;9.82;100.00
20043;BME280;10182;52.896;6.496;2023-03-18T22:16:49;100968.22;;;9.81;100.00
20043;BME280;10182;52.896;6.496;2023-03-18T22:21:52;100967.06;;;9.89;100.00
20043;BME280;10182;52.896;6.496;2023-03-18T22:26:54;100964.75;;;10.02;100.00
20043;BME280;10182;52.896;6.496;2023-03-18T22:31:55;100964.69;;;10.03;100.00
20043;BME280;10182;52.896;6.496;2023-03-18T22:36:58;100968.16;;;10.05;100.00
20043;BME280;10182;52.896;6.496;2023-03-18T22:42:01;100965.56;;;10.04;100.00
20043;BME280;10182;52.896;6.496;2023-03-18T22:47:02;100969.88;;;10.06;100.00
20043;BME280;10182;52.896;6.496;2023-03-18T22:52:11;100974.00;;;10.13;100.00
20043;BME280;10182;52.896;6.496;2023-03-18T22:57:18;100959.72;;;10.18;100.00
20043;BME280;10182;52.896;6.496;2023-03-18T23:02:22;100951.53;;;10.24;100.00
20043;BME280;10182;52.896;6.496;2023-03-18T23:07:29;100954.03;;;10.27;100.00
20043;BME280;10182;52.896;6.496;2023-03-18T23:12:31;100950.50;;;10.26;100.00
20043;BME280;10182;52.896;6.496;2023-03-18T23:17:33;100943.50;;;10.25;100.00
20043;BME280;10182;52.896;6.496;2023-03-18T23:22:37;100945.50;;;10.20;100.00
20043;BME280;10182;52.896;6.496;2023-03-18T23:27:39;100940.25;;;10.19;100.00
20043;BME280;10182;52.896;6.496;2023-03-18T23:32:40;100946.53;;;10.16;100.00
20043;BME280;10182;52.896;6.496;2023-03-18T23:37:44;100942.38;;;10.10;100.00
20043;BME280;10182;52.896;6.496;2023-03-18T23:42:46;100930.97;;;10.08;100.00
20043;BME280;10182;52.896;6.496;2023-03-18T23:47:47;100935.59;;;10.03;100.00
20043;BME280;10182;52.896;6.496;2023-03-18T23:52:50;100929.03;;;9.91;100.00
20043;BME280;10182;52.896;6.496;2023-03-18T23:57:52;100926.69;;;9.83;100.00
